Terminal Aerodrome Forecast
Issued by NWS

Home | Current Version | Previous Version | Text Only | Print | Product List | Glossary On
Versions: 1 2 3 4 5 6 7 8 9 10 11 12 13 14 15 16 17 18 19 20
000
FTUS44 KCRP 041741
TAFALI
TAF
KALI 041741Z 0418/0518 02015KT 6SM -SHRA BR BKN008 OVC015
      TEMPO 0505/0509 4SM TSRA BR BKN008 OVC015CB
     FM051000 33014KT P6SM -RA OVC008
     FM051500 33014KT P6SM OVC015=

USA.gov is the U.S. government's official web portal to all federal, state and local government web resources and services.